Flight Track Log - Related Links

Times and Time Zones

All times are in EDT time to prevent confusion due to time zone crossing. See the CES2378 flight status page for this flight to view local times or setup timezone preferences in your user account.

Time Position Orientation Groundspeed Altitude Reporting Facility
EDT Latitude Longitude Course Direction KTS MPH feet Rate Location/Type
Sat 12:35:00 AM 33.3244 105.0876 68° East  Level Estimated
Sat 12:36:00 AM 33.3530 105.1759 69° East  Level Estimated
Sat 12:37:00 AM 33.3817 105.2642 69° East  Level Estimated
Sat 12:38:00 AM 33.4102 105.3526 69° East  Level Estimated
Sat 12:39:00 AM 33.4387 105.4411 69° East  Level Estimated
Sat 12:40:00 AM 33.4672 105.5296 69° East  Level Estimated
Sat 12:41:00 AM 33.4955 105.6182 69° East  Level Estimated
Sat 12:42:00 AM 33.5238 105.7068 69° East  Level Estimated
Sat 12:43:00 AM 33.5521 105.7955 69° East  Level Estimated
Sat 12:44:00 AM 33.5802 105.8842 69° East  Level Estimated
Sat 12:45:00 AM 33.6084 105.9731 69° East  Level Estimated
Sat 12:46:00 AM 33.6364 106.0619 69° East  Level Estimated
Sat 12:47:00 AM 33.6644 106.1508 69° East  Level Estimated
Sat 12:48:00 AM 33.6923 106.2398 69° East  Level Estimated
Sat 12:49:00 AM 33.7202 106.3289 69° East  Level Estimated
Sat 12:50:00 AM 33.7480 106.4180 69° East  Level Estimated
Sat 12:51:00 AM 33.7757 106.5071 69° East  Level Estimated
Sat 12:52:00 AM 33.8034 106.5963 70° East  Level Estimated
Sat 12:53:00 AM 33.8310 106.6856 70° East  Level Estimated
Sat 12:54:00 AM 33.8586 106.7749 70° East  Level Estimated
Sat 12:55:00 AM 33.8860 106.8643 70° East  Level Estimated
Sat 12:56:00 AM 33.9134 106.9537 70° East  Level Estimated
Sat 12:57:00 AM 33.9408 107.0432 70° East  Level Estimated
Sat 12:58:00 AM 33.9681 107.1328 70° East  Level Estimated
Sat 12:59:00 AM 33.9953 107.2224 70° East  Level Estimated
Sat 01:00:00 AM 34.0224 107.3121 70° East  Level Estimated
Sat 01:01:00 AM 34.0495 107.4018 70° East  Level Estimated
Sat 01:02:00 AM 34.0765 107.4916 70° East  Level Estimated
Sat 01:03:00 AM 34.1035 107.5814 70° East  Level Estimated
Sat 01:04:00 AM 34.1304 107.6713 70° East  Level Estimated
Sat 01:05:00 AM 34.1572 107.7613 70° East  Level Estimated
Sat 01:06:00 AM 34.1840 107.8513 70° East  Level Estimated
Sat 01:07:00 AM 34.2107 107.9414 70° East  Level Estimated
Sat 01:08:00 AM 34.2373 108.0315 70° East  Level Estimated
Sat 01:09:00 AM 34.2639 108.1217 70° East  Level Estimated
Sat 01:10:00 AM 34.2904 108.2119 70° East  Level Estimated
Sat 01:11:00 AM 34.3168 108.3022 70° East  Level Estimated
Sat 01:12:00 AM 34.3432 108.3926 71° East  Level Estimated
Sat 01:13:00 AM 34.3695 108.4830 71° East  Level Estimated
Sat 01:14:00 AM 34.3957 108.5735 71° East  Level Estimated
Sat 01:15:00 AM 34.4219 108.6640 71° East  Level Estimated
Sat 01:16:00 AM 34.4471 108.7516 71° East  Level Estimated
Sat 01:17:00 AM 34.4471 108.7516 121° Southeast  Level Estimated
Sat 01:18:00 AM 34.4471 108.7516 121° Southeast  Level Estimated
Sat 01:19:00 AM 34.4471 108.7516 121° Southeast  Level Estimated
Sat 01:20:00 AM 34.4471 108.7516 121° Southeast  Level Estimated
Sat 01:21:00 AM 34.4471 108.7516 121° Southeast  Level Estimated
Sat 01:22:00 AM 34.4471 108.7516 121° Southeast  Level Estimated
Sat 01:23:00 AM 34.4471 108.7516 121° Southeast  Level Estimated
Sat 01:24:00 AM 34.4471 108.7516 121° Southeast  Level Estimated
Sat 01:25:00 AM 34.4471 108.7516 121° Southeast  Level Estimated
Sat 01:26:00 AM 34.4471 108.7516 121° Southeast  Level Estimated
Sat 01:27:00 AM 34.4471 108.7516 121° Southeast  Level Estimated
Sat 01:28:00 AM 34.4471 108.7516 121° Southeast  Level Estimated
Sat 01:29:00 AM 34.4471 108.7516 121° Southeast  Level Estimated
Sat 01:30:00 AM 34.4471 108.7516 121° Southeast  Level Estimated
Sat 01:31:00 AM 34.4471 108.7516 121° Southeast  Level Estimated
Sat 01:32:00 AM 34.4471 108.7516 121° Southeast  Level Estimated

Login

Don't have an account? Register now (free) for customized features, flight alerts, and more!